PWSweather.com
Personal Weather Stations
Station Observations
OZIERI
Punta Idda, OzieriIT

Punta IddaOzieriIT

Lat: 40.584142, Lon: 9.007657999999992

Elevation: 1483

Station Type: Lacrosse ws2350

Latest ConditionsUpdated 12:56:53 AM GMT+01:01 Thursday, Apr 26, 2018
Currently Today's Max Today's Min Today's Average
Temperature 60.1°F15.6°C 61.0°F16.1°C 60.1°F15.6°C 60.6°F15.9°C
Dew Point 48.7°F9.3°C 49.5°F9.7°C 48.2°F9.0°C 49.2°F9.6°C
Winds 1.6 mph SSE2.6 kmh SSE 2.2 mph SE3.5 kmh SE - 1.4 mph 2.3 kmh
Wind Gusts 2.2 mph3.5 kmh 3.4 mph5.5 kmh - -
Humidity 66% 66% 65% 66%
Pressure 30.02 in1016.6 mb 30.03 in1016.9 mb 30.02 in1016.6 mb -
Hour Temp Dew Point Humidity Winds Wind Gusts Pressure Precip Precip Rate Daily Precip Total
12:56 AM 60.1°F15.6°C 48.7°F9.3°C 66% 1.6 mph SSE2.6 kmh SSE 2.2 mph3.5 kmh 30.02 in1016.6 mb 0.00 in0.0 mm 0.00 in0.0 mm 0.00 in0.0 mm
12:54 AM 60.1°F15.6°C 48.7°F9.3°C 66% 1.3 mph SE2.1 kmh SE 2.0 mph3.2 kmh 30.02 in1016.6 mb 0.00 in0.0 mm 0.00 in0.0 mm 0.00 in0.0 mm
12:52 AM 60.1°F15.6°C 48.7°F9.3°C 66% 1.3 mph SE2.1 kmh SE 1.8 mph2.9 kmh 30.02 in1016.6 mb 0.00 in0.0 mm 0.00 in0.0 mm 0.00 in0.0 mm
12:50 AM 60.1°F15.6°C 48.2°F9.0°C 65% 1.6 mph SSE2.6 kmh SSE 2.5 mph4.0 kmh 30.03 in1016.9 mb 0.00 in0.0 mm 0.00 in0.0 mm 0.00 in0.0 mm
12:47 AM 60.4°F15.8°C 48.6°F9.2°C 65% 1.8 mph SSE2.9 kmh SSE 2.2 mph3.5 kmh 30.03 in1016.9 mb 0.00 in0.0 mm 0.00 in0.0 mm 0.00 in0.0 mm
12:45 AM 60.4°F15.8°C 49.1°F9.5°C 66% 1.6 mph SSE2.6 kmh SSE 2.2 mph3.5 kmh 30.03 in1016.9 mb 0.00 in0.0 mm 0.00 in0.0 mm 0.00 in0.0 mm
12:43 AM 60.6°F15.9°C 49.3°F9.6°C 66% 1.3 mph SE2.1 kmh SE 2.0 mph3.2 kmh 30.02 in1016.6 mb 0.00 in0.0 mm 0.00 in0.0 mm 0.00 in0.0 mm
12:41 AM 60.6°F15.9°C 49.3°F9.6°C 66% 1.1 mph SSE1.8 kmh SSE 2.0 mph3.2 kmh 30.03 in1016.9 mb 0.00 in0.0 mm 0.00 in0.0 mm 0.00 in0.0 mm
12:39 AM 60.6°F15.9°C 49.3°F9.6°C 66% 0.7 mph SSE1.1 kmh SSE 1.1 mph1.8 kmh 30.02 in1016.6 mb 0.00 in0.0 mm 0.00 in0.0 mm 0.00 in0.0 mm
12:37 AM 60.6°F15.9°C 49.3°F9.6°C 66% 0.7 mph SSE1.1 kmh SSE 1.3 mph2.1 kmh 30.03 in1016.9 mb 0.00 in0.0 mm 0.00 in0.0 mm 0.00 in0.0 mm
12:35 AM 60.4°F15.8°C 49.1°F9.5°C 66% 0.7 mph SSE1.1 kmh SSE 0.9 mph1.4 kmh 30.03 in1016.9 mb 0.00 in0.0 mm 0.00 in0.0 mm 0.00 in0.0 mm
12:33 AM 60.4°F15.8°C 49.1°F9.5°C 66% 0.9 mph SSE1.4 kmh SSE 1.3 mph2.1 kmh 30.03 in1016.9 mb 0.00 in0.0 mm 0.00 in0.0 mm 0.00 in0.0 mm
12:30 AM 60.6°F15.9°C 49.3°F9.6°C 66% 1.1 mph SE1.8 kmh SE 2.0 mph3.2 kmh 30.03 in1016.9 mb 0.00 in0.0 mm 0.00 in0.0 mm 0.00 in0.0 mm
12:28 AM 60.6°F15.9°C 49.3°F9.6°C 66% 1.1 mph SE1.8 kmh SE 1.6 mph2.6 kmh 30.03 in1016.9 mb 0.00 in0.0 mm 0.00 in0.0 mm 0.00 in0.0 mm
12:26 AM 60.6°F15.9°C 49.3°F9.6°C 66% 0.9 mph SE1.4 kmh SE 1.8 mph2.9 kmh 30.03 in1016.9 mb 0.00 in0.0 mm 0.00 in0.0 mm 0.00 in0.0 mm
12:24 AM 60.6°F15.9°C 49.3°F9.6°C 66% 1.3 mph SE2.1 kmh SE 2.0 mph3.2 kmh 30.03 in1016.9 mb 0.00 in0.0 mm 0.00 in0.0 mm 0.00 in0.0 mm
12:21 AM 61.0°F16.1°C 49.5°F9.7°C 66% 0.9 mph SE1.4 kmh SE 1.6 mph2.6 kmh 30.03 in1016.9 mb 0.00 in0.0 mm 0.00 in0.0 mm 0.00 in0.0 mm
12:19 AM 61.0°F16.1°C 49.5°F9.7°C 66% 1.6 mph SSE2.6 kmh SSE 1.6 mph2.6 kmh 30.03 in1016.9 mb 0.00 in0.0 mm 0.00 in0.0 mm 0.00 in0.0 mm
12:17 AM 61.0°F16.1°C 49.5°F9.7°C 66% 2.2 mph SSE3.5 kmh SSE 2.2 mph3.5 kmh 30.02 in1016.6 mb 0.00 in0.0 mm 0.00 in0.0 mm 0.00 in0.0 mm
12:15 AM 61.0°F16.1°C 49.5°F9.7°C 66% 2.2 mph SE3.5 kmh SE 2.5 mph4.0 kmh 30.02 in1016.6 mb 0.00 in0.0 mm 0.00 in0.0 mm 0.00 in0.0 mm
12:13 AM 61.0°F16.1°C 49.5°F9.7°C 66% 2.2 mph SSE3.5 kmh SSE 2.5 mph4.0 kmh 30.03 in1016.9 mb 0.00 in0.0 mm 0.00 in0.0 mm 0.00 in0.0 mm
12:10 AM 61.0°F16.1°C 49.5°F9.7°C 66% 2.2 mph SSE3.5 kmh SSE 2.5 mph4.0 kmh 30.03 in1016.9 mb 0.00 in0.0 mm 0.00 in0.0 mm 0.00 in0.0 mm
12:08 AM 61.0°F16.1°C 49.5°F9.7°C 66% 2.2 mph SE3.5 kmh SE 3.4 mph5.5 kmh 30.03 in1016.9 mb 0.00 in0.0 mm 0.00 in0.0 mm 0.00 in0.0 mm
12:06 AM 61.0°F16.1°C 49.5°F9.7°C 66% 1.8 mph ESE2.9 kmh ESE 2.7 mph4.3 kmh 30.03 in1016.9 mb 0.00 in0.0 mm 0.00 in0.0 mm 0.00 in0.0 mm
12:04 AM 61.0°F16.1°C 49.5°F9.7°C 66% 1.3 mph S2.1 kmh S 1.8 mph2.9 kmh 30.03 in1016.9 mb 0.00 in0.0 mm 0.00 in0.0 mm 0.00 in0.0 mm
12:02 AM 61.0°F16.1°C 49.5°F9.7°C 66% 1.1 mph SE1.8 kmh SE 1.3 mph2.1 kmh 30.03 in1016.9 mb 0.00 in0.0 mm 0.00 in0.0 mm 0.00 in0.0 mm